createdAt,value
2023-05-24T00:00:58.727Z,20.15
2023-05-24T00:02:11.270Z,20.17
2023-05-24T00:03:25.366Z,20.17
2023-05-24T00:04:28.188Z,20.13
2023-05-24T00:05:41.697Z,20.15
2023-05-24T00:06:54.265Z,20.13
2023-05-24T00:07:57.676Z,20.13
2023-05-24T00:09:10.187Z,20.14
2023-05-24T00:10:23.701Z,20.13
2023-05-24T00:11:26.292Z,20.11
2023-05-24T00:12:39.681Z,20.13
2023-05-24T00:13:52.178Z,20.1
2023-05-24T00:14:55.665Z,20.08
2023-05-24T00:16:08.223Z,20.1
2023-05-24T00:17:21.674Z,20.08
2023-05-24T00:18:24.289Z,20.11
2023-05-24T00:19:37.671Z,20.08
2023-05-24T00:20:50.229Z,20.07
2023-05-24T00:22:03.697Z,20.08
2023-05-24T00:23:06.273Z,20.08
2023-05-24T00:24:19.702Z,20.08
2023-05-24T00:25:32.297Z,20.07
2023-05-24T00:26:36.202Z,20.06
2023-05-24T00:27:48.775Z,20.06
2023-05-24T00:29:02.192Z,20.07
2023-05-24T00:30:04.761Z,20.04
2023-05-24T00:31:18.228Z,20.01
2023-05-24T00:32:30.808Z,20.03
2023-05-24T00:33:44.202Z,20.03
2023-05-24T00:34:46.770Z,20.03
2023-05-24T00:36:00.195Z,20.04
2023-05-24T00:37:12.733Z,20.01
2023-05-24T00:38:16.176Z,20.01
2023-05-24T00:39:28.761Z,20.0
2023-05-24T00:40:42.379Z,20.0
2023-05-24T00:41:45.101Z,20.0
2023-05-24T00:42:58.676Z,19.98
2023-05-24T00:44:11.308Z,19.98
2023-05-24T00:45:14.680Z,20.0
2023-05-24T00:46:27.322Z,20.0
2023-05-24T00:47:40.741Z,19.97
2023-05-24T00:48:43.318Z,20.0
2023-05-24T00:49:56.678Z,19.97
2023-05-24T00:51:09.172Z,19.97
2023-05-24T00:52:22.689Z,19.96
2023-05-24T00:53:25.266Z,19.96
2023-05-24T00:54:38.659Z,19.94
2023-05-24T00:55:51.255Z,19.93
2023-05-24T00:56:54.662Z,19.96
2023-05-24T00:58:07.160Z,19.96
2023-05-24T00:59:20.705Z,19.96
2023-05-24T01:00:23.318Z,19.93
2023-05-24T01:01:36.727Z,19.91
2023-05-24T01:02:50.716Z,19.9
2023-05-24T01:03:54.852Z,19.9
2023-05-24T01:05:07.483Z,19.91
2023-05-24T01:06:20.711Z,19.91
2023-05-24T01:07:23.380Z,19.9
2023-05-24T01:08:38.754Z,19.93
2023-05-24T01:09:51.443Z,19.87
2023-05-24T01:10:54.688Z,19.91
2023-05-24T01:12:07.201Z,19.88
2023-05-24T01:13:20.698Z,19.88
2023-05-24T01:14:23.317Z,19.9
2023-05-24T01:15:36.705Z,19.86
2023-05-24T01:16:49.223Z,19.84
2023-05-24T01:18:02.771Z,19.88
2023-05-24T01:19:05.421Z,19.86
2023-05-24T01:20:18.777Z,19.86
2023-05-24T01:21:31.447Z,19.86
2023-05-24T01:22:35.231Z,19.84
2023-05-24T01:23:47.753Z,19.86
2023-05-24T01:25:01.210Z,19.86
2023-05-24T01:26:03.835Z,19.86
2023-05-24T01:27:17.199Z,19.84
2023-05-24T01:28:29.766Z,19.83
2023-05-24T01:29:33.209Z,19.81
2023-05-24T01:31:05.297Z,19.81
2023-05-24T01:31:59.214Z,19.81
2023-05-24T01:33:11.729Z,19.81
2023-05-24T01:34:15.216Z,19.81
2023-05-24T01:35:27.748Z,19.81
2023-05-24T01:36:41.229Z,19.84
2023-05-24T01:37:43.836Z,19.78
2023-05-24T01:38:57.208Z,19.81
2023-05-24T01:40:09.688Z,19.83
2023-05-24T01:41:12.682Z,19.8
2023-05-24T01:42:24.991Z,19.81
2023-05-24T01:43:38.217Z,19.81
2023-05-24T01:44:50.626Z,19.78
2023-05-24T01:45:53.719Z,19.78
2023-05-24T01:47:06.107Z,19.78
2023-05-24T01:48:19.694Z,19.78
2023-05-24T01:49:22.291Z,19.76
2023-05-24T01:50:35.662Z,19.77
2023-05-24T01:51:48.230Z,19.77
2023-05-24T01:52:51.679Z,19.76
2023-05-24T01:54:04.216Z,19.76
2023-05-24T01:55:17.710Z,19.73
2023-05-24T01:56:30.263Z,19.73
2023-05-24T01:57:33.701Z,19.73
2023-05-24T01:58:46.236Z,19.73
2023-05-24T01:59:59.680Z,19.7
2023-05-24T02:01:02.341Z,19.71
2023-05-24T02:02:15.679Z,19.71
2023-05-24T02:03:28.234Z,19.71
2023-05-24T02:04:31.706Z,19.71
2023-05-24T02:05:44.257Z,19.7
2023-05-24T02:06:59.147Z,19.68
2023-05-24T02:08:01.780Z,19.7
2023-05-24T02:09:15.216Z,19.7
2023-05-24T02:10:27.806Z,19.67
2023-05-24T02:11:31.206Z,19.67
2023-05-24T02:12:43.726Z,19.66
2023-05-24T02:13:57.230Z,19.67
2023-05-24T02:14:59.833Z,19.66
2023-05-24T02:16:13.346Z,19.66
2023-05-24T02:17:26.022Z,19.66
2023-05-24T02:18:39.710Z,19.66
2023-05-24T02:19:42.253Z,19.66
2023-05-24T02:20:55.224Z,19.63
2023-05-24T02:22:07.512Z,19.63
2023-05-24T02:23:10.718Z,19.62
2023-05-24T02:24:23.042Z,19.63
2023-05-24T02:25:36.199Z,19.62
2023-05-24T02:26:38.806Z,19.63
2023-05-24T02:27:52.236Z,19.63
2023-05-24T02:29:04.754Z,19.63
2023-05-24T02:30:18.213Z,19.63
2023-05-24T02:31:20.832Z,19.6
2023-05-24T02:32:34.217Z,19.6
2023-05-24T02:33:46.886Z,19.6
2023-05-24T02:34:50.218Z,19.6
2023-05-24T02:36:02.745Z,19.59
2023-05-24T02:37:16.214Z,19.6
2023-05-24T02:38:18.852Z,19.62
2023-05-24T02:39:32.184Z,19.59
2023-05-24T02:40:44.912Z,19.6
2023-05-24T02:41:48.743Z,19.57
2023-05-24T02:43:01.285Z,19.59
2023-05-24T02:44:14.723Z,19.57
2023-05-24T02:45:17.327Z,19.59
2023-05-24T02:46:30.780Z,19.56
2023-05-24T02:47:43.459Z,19.55
2023-05-24T02:48:56.717Z,19.59
2023-05-24T02:49:59.370Z,19.57
2023-05-24T02:51:12.704Z,19.56
2023-05-24T02:52:25.267Z,19.57
2023-05-24T02:53:28.707Z,19.55
2023-05-24T02:54:41.252Z,19.55
2023-05-24T02:55:54.718Z,19.57
2023-05-24T02:56:57.365Z,19.62
2023-05-24T02:58:11.243Z,19.59
2023-05-24T02:59:23.791Z,19.59
2023-05-24T03:00:37.195Z,19.57
2023-05-24T03:01:39.820Z,19.56
2023-05-24T03:02:53.308Z,19.56
2023-05-24T03:04:05.978Z,19.55
2023-05-24T03:05:09.699Z,19.55
2023-05-24T03:06:22.263Z,19.56
2023-05-24T03:07:35.720Z,19.56
2023-05-24T03:08:38.355Z,19.55
2023-05-24T03:09:51.739Z,19.55
2023-05-24T03:11:04.341Z,19.53
2023-05-24T03:12:07.734Z,19.55
2023-05-24T03:13:20.288Z,19.53
2023-05-24T03:14:33.721Z,19.53
2023-05-24T03:15:36.337Z,19.55
2023-05-24T03:16:49.707Z,19.53
2023-05-24T03:18:02.353Z,19.52
2023-05-24T03:19:15.727Z,19.52
2023-05-24T03:20:18.373Z,19.52
2023-05-24T03:21:31.727Z,19.53
2023-05-24T03:22:44.268Z,19.52
2023-05-24T03:23:47.735Z,19.52
2023-05-24T03:25:00.338Z,19.53
2023-05-24T03:26:13.716Z,19.5
2023-05-24T03:27:16.325Z,19.5
2023-05-24T03:28:29.731Z,19.5
2023-05-24T03:29:42.296Z,19.47
2023-05-24T03:30:55.789Z,19.47
2023-05-24T03:31:58.455Z,19.52
2023-05-24T03:33:11.731Z,19.6
2023-05-24T03:34:24.224Z,19.68
2023-05-24T03:35:27.740Z,19.77
2023-05-24T03:36:40.181Z,19.87
2023-05-24T03:37:53.249Z,20.03
2023-05-24T03:38:55.778Z,20.13
2023-05-24T03:40:10.739Z,20.22
2023-05-24T03:41:23.132Z,20.32
2023-05-24T03:42:26.253Z,20.41
2023-05-24T03:43:38.610Z,20.54
2023-05-24T03:44:51.718Z,20.57
2023-05-24T03:46:04.190Z,20.65
2023-05-24T03:47:07.730Z,20.7
2023-05-24T03:48:20.022Z,20.78
2023-05-24T03:49:33.213Z,20.82
2023-05-24T03:50:35.741Z,20.88
2023-05-24T03:51:48.753Z,20.9
2023-05-24T03:53:01.151Z,20.97
2023-05-24T03:54:14.260Z,21.01
2023-05-24T03:55:16.674Z,21.06
2023-05-24T03:56:29.717Z,21.06
2023-05-24T03:57:41.970Z,21.1
2023-05-24T03:58:45.217Z,21.13
2023-05-24T03:59:57.536Z,21.14
2023-05-24T04:01:12.666Z,21.17
2023-05-24T04:02:21.452Z,21.2
2023-05-24T04:03:44.531Z,21.2
2023-05-24T04:04:37.255Z,21.26
2023-05-24T04:05:50.252Z,21.29
2023-05-24T04:06:52.675Z,21.29
2023-05-24T04:08:05.753Z,21.33
2023-05-24T04:09:18.046Z,21.33
2023-05-24T04:10:31.230Z,21.33
2023-05-24T04:11:33.587Z,21.34
2023-05-24T04:12:46.725Z,21.36
2023-05-24T04:13:58.956Z,21.37
2023-05-24T04:15:02.234Z,21.39
2023-05-24T04:16:14.537Z,21.39
2023-05-24T04:17:27.969Z,21.39
2023-05-24T04:18:30.676Z,21.4
2023-05-24T04:19:43.749Z,21.4
2023-05-24T04:20:56.032Z,21.41
2023-05-24T04:22:09.238Z,21.43
2023-05-24T04:23:11.643Z,21.4
2023-05-24T04:24:24.766Z,21.4
2023-05-24T04:25:37.004Z,21.4
2023-05-24T04:26:40.272Z,21.41
2023-05-24T04:27:52.495Z,21.41
2023-05-24T04:29:05.777Z,21.41
2023-05-24T04:30:08.298Z,21.43
2023-05-24T04:31:40.770Z,21.41
2023-05-24T04:32:33.401Z,21.43
2023-05-24T04:33:46.759Z,21.44
2023-05-24T04:34:49.180Z,21.44
2023-05-24T04:36:02.281Z,21.44
2023-05-24T04:37:14.774Z,21.46
2023-05-24T04:38:19.111Z,21.48
2023-05-24T04:39:33.145Z,21.47
2023-05-24T04:40:46.232Z,21.47
2023-05-24T04:41:48.649Z,21.48
2023-05-24T04:43:01.753Z,21.51
2023-05-24T04:44:14.049Z,21.51
2023-05-24T04:45:27.226Z,21.5
2023-05-24T04:46:29.625Z,21.5
2023-05-24T04:47:42.804Z,21.5
2023-05-24T04:48:55.309Z,21.48
2023-05-24T04:49:58.750Z,21.51
2023-05-24T04:51:11.087Z,21.53
2023-05-24T04:52:24.274Z,21.53
2023-05-24T04:53:26.747Z,21.54
2023-05-24T04:54:39.738Z,21.54
2023-05-24T04:55:51.963Z,21.53
2023-05-24T04:57:05.283Z,21.54
2023-05-24T04:58:07.649Z,21.54
2023-05-24T04:59:20.758Z,21.55
2023-05-24T05:00:33.048Z,21.57
2023-05-24T05:01:36.280Z,21.55
2023-05-24T05:02:48.676Z,21.54
2023-05-24T05:04:11.324Z,21.54
2023-05-24T05:05:03.849Z,21.54
2023-05-24T05:06:16.763Z,21.54
2023-05-24T05:07:29.028Z,21.57
2023-05-24T05:08:42.287Z,21.58
2023-05-24T05:09:44.686Z,21.6
2023-05-24T05:10:58.241Z,21.6
2023-05-24T05:12:10.547Z,21.6
2023-05-24T05:13:13.748Z,21.61
2023-05-24T05:14:25.971Z,21.65
2023-05-24T05:15:40.503Z,21.62
2023-05-24T05:16:44.083Z,21.61
2023-05-24T05:17:57.318Z,21.65
2023-05-24T05:19:09.575Z,21.65
2023-05-24T05:20:12.805Z,21.65
2023-05-24T05:21:25.124Z,21.64
2023-05-24T05:22:38.286Z,21.64
2023-05-24T05:23:50.547Z,21.67
2023-05-24T05:24:53.968Z,21.67
2023-05-24T05:26:35.872Z,21.7
2023-05-24T05:27:20.050Z,21.68
2023-05-24T05:28:22.395Z,21.71
2023-05-24T05:29:35.752Z,21.72
2023-05-24T05:30:48.002Z,21.77
2023-05-24T05:31:51.318Z,21.77
2023-05-24T05:33:03.666Z,21.78
2023-05-24T05:34:16.789Z,21.77
2023-05-24T05:35:19.219Z,21.77
2023-05-24T05:36:32.262Z,21.78
2023-05-24T05:37:44.750Z,21.77
2023-05-24T05:38:57.788Z,21.77
2023-05-24T05:40:00.153Z,21.75
2023-05-24T05:41:13.279Z,21.75
2023-05-24T05:42:25.497Z,21.74
2023-05-24T05:43:28.769Z,21.71
2023-05-24T05:44:40.985Z,21.7
2023-05-24T05:45:53.835Z,21.7
2023-05-24T05:47:06.223Z,21.68
2023-05-24T05:48:09.286Z,21.64
2023-05-24T05:49:21.587Z,21.64
2023-05-24T05:50:34.773Z,21.62
2023-05-24T05:51:40.196Z,21.61
2023-05-24T05:52:53.275Z,21.61
2023-05-24T05:54:05.483Z,21.61
2023-05-24T05:55:08.777Z,21.6
2023-05-24T05:56:21.012Z,21.61
2023-05-24T05:57:34.274Z,21.6
2023-05-24T05:58:36.647Z,21.6
2023-05-24T05:59:49.785Z,21.6
2023-05-24T06:01:01.991Z,21.61
2023-05-24T06:02:15.308Z,21.62
2023-05-24T06:03:17.956Z,21.6
2023-05-24T06:04:31.325Z,21.62
2023-05-24T06:05:45.310Z,21.64
2023-05-24T06:06:48.285Z,21.64
2023-05-24T06:08:00.558Z,21.67
2023-05-24T06:09:13.774Z,21.7
2023-05-24T06:10:16.131Z,21.67
2023-05-24T06:11:29.268Z,21.7
2023-05-24T06:12:41.575Z,21.71
2023-05-24T06:13:44.767Z,21.71
2023-05-24T06:14:57.300Z,21.75
2023-05-24T06:16:11.305Z,21.74
2023-05-24T06:17:14.658Z,21.77
2023-05-24T06:18:28.712Z,21.78
2023-05-24T06:19:41.632Z,21.82
2023-05-24T06:20:46.028Z,21.81
2023-05-24T06:21:59.304Z,21.82
2023-05-24T06:23:13.328Z,21.85
2023-05-24T06:24:16.004Z,21.88
2023-05-24T06:25:29.948Z,21.88
2023-05-24T06:26:33.251Z,21.91
2023-05-24T06:27:46.796Z,21.91
2023-05-24T06:28:59.005Z,21.94
2023-05-24T06:30:11.847Z,21.94
2023-05-24T06:31:14.419Z,21.98
2023-05-24T06:32:27.411Z,22.01
2023-05-24T06:33:42.597Z,22.02
2023-05-24T06:34:47.796Z,22.01
2023-05-24T06:36:00.041Z,22.05
2023-05-24T06:37:03.291Z,22.06
2023-05-24T06:38:15.476Z,22.08
2023-05-24T06:39:28.321Z,22.11
2023-05-24T06:40:40.814Z,22.09
2023-05-24T06:41:44.298Z,22.08
2023-05-24T06:42:56.546Z,22.12
2023-05-24T06:44:09.305Z,22.12
2023-05-24T06:45:11.608Z,22.13
2023-05-24T06:46:24.853Z,22.15
2023-05-24T06:47:39.280Z,22.18
2023-05-24T06:48:42.390Z,22.16
2023-05-24T06:49:54.712Z,22.19
2023-05-24T06:51:07.800Z,22.18
2023-05-24T06:52:10.150Z,22.23
2023-05-24T06:53:23.792Z,22.23
2023-05-24T06:54:35.935Z,22.23
2023-05-24T06:55:48.776Z,22.23
2023-05-24T06:56:51.120Z,22.25
2023-05-24T06:58:04.298Z,22.26
2023-05-24T06:59:16.593Z,22.28
2023-05-24T07:00:29.799Z,22.26
2023-05-24T07:01:32.169Z,22.29
2023-05-24T07:02:49.870Z,22.3
2023-05-24T07:03:52.224Z,22.3
2023-05-24T07:05:05.357Z,22.32
2023-05-24T07:06:17.670Z,22.3
2023-05-24T07:07:20.802Z,22.35
2023-05-24T07:08:33.053Z,22.35
2023-05-24T07:09:46.285Z,22.35
2023-05-24T07:10:48.550Z,22.38
2023-05-24T07:12:01.809Z,22.38
2023-05-24T07:13:14.022Z,22.38
2023-05-24T07:14:26.792Z,22.38
2023-05-24T07:15:29.138Z,22.39
2023-05-24T07:16:42.319Z,22.41
2023-05-24T07:17:54.733Z,22.41
2023-05-24T07:19:07.804Z,22.42
2023-05-24T07:20:10.118Z,22.42
2023-05-24T07:21:23.287Z,22.43
2023-05-24T07:22:35.498Z,22.42
2023-05-24T07:23:38.816Z,22.43
2023-05-24T07:24:50.973Z,22.45
2023-05-24T07:26:03.874Z,22.45
2023-05-24T07:27:16.173Z,22.46
2023-05-24T07:28:19.318Z,22.48
2023-05-24T07:29:31.377Z,22.49
2023-05-24T07:30:53.868Z,22.5
2023-05-24T07:31:46.457Z,22.46
2023-05-24T07:32:59.368Z,22.5
2023-05-24T07:34:11.590Z,22.53
2023-05-24T07:35:24.797Z,22.54
2023-05-24T07:36:27.129Z,22.54
2023-05-24T07:37:40.322Z,22.56
2023-05-24T07:38:52.500Z,22.57
2023-05-24T07:40:05.319Z,22.57
2023-05-24T07:41:07.638Z,22.6
2023-05-24T07:42:23.739Z,22.57
2023-05-24T07:43:26.324Z,22.62
2023-05-24T07:44:39.802Z,22.63
2023-05-24T07:45:53.049Z,22.62
2023-05-24T07:46:56.334Z,22.62
2023-05-24T07:48:08.741Z,22.62
2023-05-24T07:49:22.327Z,22.63
2023-05-24T07:50:24.579Z,22.66
2023-05-24T07:51:37.331Z,22.63
2023-05-24T07:52:49.482Z,22.67
2023-05-24T07:54:02.328Z,22.67
2023-05-24T07:55:04.580Z,22.69
2023-05-24T07:56:17.295Z,22.72
2023-05-24T07:57:29.477Z,22.72
2023-05-24T07:58:42.824Z,22.74
2023-05-24T07:59:45.303Z,22.76
2023-05-24T08:00:58.344Z,22.79
2023-05-24T08:02:10.521Z,22.8
2023-05-24T08:03:13.971Z,22.81
2023-05-24T08:04:26.179Z,22.83
2023-05-24T08:05:40.396Z,22.86
2023-05-24T08:06:43.426Z,22.87
2023-05-24T08:07:56.312Z,22.9
2023-05-24T08:09:08.440Z,22.91
2023-05-24T08:10:21.346Z,22.91
2023-05-24T08:11:23.683Z,22.97
2023-05-24T08:12:36.845Z,22.99
2023-05-24T08:13:48.949Z,23.0
2023-05-24T08:14:51.829Z,23.03
2023-05-24T08:16:03.971Z,23.05
2023-05-24T08:17:16.842Z,23.03
2023-05-24T08:18:29.014Z,23.07
2023-05-24T08:19:32.344Z,23.07
2023-05-24T08:20:44.633Z,23.08
2023-05-24T08:21:57.806Z,23.11
2023-05-24T08:23:00.123Z,23.08
2023-05-24T08:24:13.309Z,23.11
2023-05-24T08:25:25.459Z,23.13
2023-05-24T08:26:38.382Z,23.14
2023-05-24T08:27:40.667Z,23.17
2023-05-24T08:28:53.345Z,23.17
2023-05-24T08:30:05.490Z,23.2
2023-05-24T08:31:18.373Z,23.21
2023-05-24T08:32:21.241Z,23.2
2023-05-24T08:33:34.292Z,23.23
2023-05-24T08:34:46.407Z,23.23
2023-05-24T08:35:49.325Z,23.25
2023-05-24T08:37:01.463Z,23.27
2023-05-24T08:38:14.323Z,23.28
2023-05-24T08:39:26.404Z,23.27
2023-05-24T08:40:29.336Z,23.25
2023-05-24T08:41:41.512Z,23.28
2023-05-24T08:42:54.333Z,23.31
2023-05-24T08:43:56.623Z,23.34
2023-05-24T08:45:09.353Z,23.34
2023-05-24T08:46:21.663Z,23.35
2023-05-24T08:47:36.261Z,23.38
2023-05-24T08:48:38.633Z,23.38
2023-05-24T08:49:51.328Z,23.39
2023-05-24T08:51:03.462Z,23.44
2023-05-24T08:52:06.317Z,23.42
2023-05-24T08:53:18.384Z,23.42
2023-05-24T08:54:31.348Z,23.44
2023-05-24T08:55:43.778Z,23.45
2023-05-24T08:56:47.324Z,23.42
2023-05-24T08:57:59.464Z,23.45
2023-05-24T08:59:12.310Z,23.47
2023-05-24T09:00:14.549Z,23.45
2023-05-24T09:01:30.541Z,23.44
2023-05-24T09:02:43.369Z,23.45
2023-05-24T09:03:47.833Z,23.47
2023-05-24T09:05:00.046Z,23.47
2023-05-24T09:06:12.821Z,23.49
2023-05-24T09:07:15.097Z,23.48
2023-05-24T09:08:27.872Z,23.45
2023-05-24T09:09:40.045Z,23.47
2023-05-24T09:10:55.779Z,23.47
2023-05-24T09:11:58.415Z,23.47
2023-05-24T09:13:11.356Z,23.48
2023-05-24T09:14:13.634Z,23.49
2023-05-24T09:15:26.366Z,23.38
2023-05-24T09:16:38.572Z,23.45
2023-05-24T09:17:51.891Z,23.47
2023-05-24T09:18:54.292Z,23.49
2023-05-24T09:20:08.937Z,23.48
2023-05-24T09:21:21.216Z,23.48
2023-05-24T09:22:25.835Z,23.52
2023-05-24T09:23:37.979Z,23.48
2023-05-24T09:24:50.848Z,23.52
2023-05-24T09:25:53.134Z,23.52
2023-05-24T09:27:05.897Z,23.54
2023-05-24T09:28:18.046Z,23.55
2023-05-24T09:29:30.842Z,23.56
2023-05-24T09:30:33.567Z,23.56
2023-05-24T09:31:46.422Z,23.56
2023-05-24T09:32:58.751Z,23.56
2023-05-24T09:34:01.846Z,23.58
2023-05-24T09:35:13.991Z,23.58
2023-05-24T09:36:28.372Z,23.62
2023-05-24T09:37:32.979Z,23.59
2023-05-24T09:38:46.353Z,23.62
2023-05-24T09:39:58.489Z,23.62
2023-05-24T09:41:01.868Z,23.64
2023-05-24T09:42:14.070Z,23.65
2023-05-24T09:43:26.840Z,23.68
2023-05-24T09:44:29.039Z,23.68
2023-05-24T09:45:42.352Z,23.68
2023-05-24T09:46:54.446Z,23.66
2023-05-24T09:48:07.433Z,23.69
2023-05-24T09:49:09.705Z,23.68
2023-05-24T09:50:22.376Z,23.68
2023-05-24T09:51:34.569Z,23.72
2023-05-24T09:52:47.343Z,23.71
2023-05-24T09:53:49.616Z,23.74
2023-05-24T09:55:02.339Z,23.71
2023-05-24T09:56:14.415Z,23.72
2023-05-24T09:57:17.353Z,23.72
2023-05-24T09:58:29.485Z,23.74
2023-05-24T09:59:42.893Z,23.72
2023-05-24T10:00:55.034Z,23.72
2023-05-24T10:01:57.858Z,23.75
2023-05-24T10:03:09.926Z,23.74
2023-05-24T10:04:22.894Z,23.74
2023-05-24T10:05:35.032Z,23.75
2023-05-24T10:06:37.874Z,23.76
2023-05-24T10:07:49.914Z,23.76
2023-05-24T10:09:02.875Z,23.75
2023-05-24T10:10:07.415Z,23.78
2023-05-24T10:11:20.359Z,23.78
2023-05-24T10:12:32.472Z,23.81
2023-05-24T10:13:35.391Z,23.81
2023-05-24T10:14:47.496Z,23.82
2023-05-24T10:16:00.372Z,23.81
2023-05-24T10:17:12.571Z,23.83
2023-05-24T10:18:15.378Z,23.83
2023-05-24T10:19:27.512Z,23.85
2023-05-24T10:20:40.616Z,23.86
2023-05-24T10:21:43.146Z,23.86
2023-05-24T10:22:56.350Z,23.85
2023-05-24T10:24:09.216Z,23.88
2023-05-24T10:25:21.870Z,23.89
2023-05-24T10:26:24.243Z,23.9
2023-05-24T10:27:37.390Z,23.89
2023-05-24T10:28:49.470Z,23.9
2023-05-24T10:29:52.367Z,23.93
2023-05-24T10:31:04.610Z,23.92
2023-05-24T10:32:17.378Z,23.95
2023-05-24T10:33:19.667Z,23.95
2023-05-24T10:34:32.357Z,23.95
2023-05-24T10:35:44.448Z,23.93
2023-05-24T10:36:57.401Z,23.92
2023-05-24T10:38:00.722Z,23.92
2023-05-24T10:39:13.371Z,23.92
2023-05-24T10:40:25.607Z,23.93
2023-05-24T10:41:38.887Z,23.92
2023-05-24T10:42:41.250Z,23.93
2023-05-24T10:44:08.789Z,23.93
2023-05-24T10:45:02.416Z,23.92
2023-05-24T10:46:15.407Z,23.9
2023-05-24T10:47:17.658Z,23.93
2023-05-24T10:48:30.380Z,23.93
2023-05-24T10:49:42.497Z,23.95
2023-05-24T10:50:55.364Z,23.92
2023-05-24T10:52:07.523Z,23.95
2023-05-24T10:53:10.399Z,23.95
2023-05-24T10:54:22.515Z,23.96
2023-05-24T10:55:35.383Z,23.96
2023-05-24T10:56:37.648Z,23.99
2023-05-24T10:57:50.861Z,24.02
2023-05-24T10:59:02.990Z,24.02
2023-05-24T11:00:07.838Z,24.0
2023-05-24T11:01:21.252Z,24.0
2023-05-24T11:02:34.389Z,24.0
2023-05-24T11:03:37.957Z,24.02
2023-05-24T11:04:50.893Z,24.03
2023-05-24T11:06:03.069Z,24.03
2023-05-24T11:07:07.866Z,24.02
2023-05-24T11:08:19.967Z,24.02
2023-05-24T11:09:32.909Z,24.02
2023-05-24T11:10:35.262Z,24.0
2023-05-24T11:11:48.373Z,24.03
2023-05-24T11:13:00.676Z,24.03
2023-05-24T11:14:03.883Z,24.02
2023-05-24T11:15:16.005Z,24.03
2023-05-24T11:16:28.890Z,24.02
2023-05-24T11:17:43.518Z,24.02
2023-05-24T11:18:46.875Z,24.0
2023-05-24T11:19:59.018Z,24.02
2023-05-24T11:21:11.866Z,24.03
2023-05-24T11:22:14.137Z,24.03
2023-05-24T11:23:26.891Z,24.03
2023-05-24T11:24:38.950Z,24.02
2023-05-24T11:25:41.893Z,24.02
2023-05-24T11:26:54.100Z,24.0
2023-05-24T11:28:06.930Z,24.0
2023-05-24T11:29:19.256Z,24.03
2023-05-24T11:30:22.408Z,24.0
2023-05-24T11:31:35.653Z,24.02
2023-05-24T11:32:42.357Z,24.02
2023-05-24T11:33:57.341Z,24.03
2023-05-24T11:35:10.186Z,24.0
2023-05-24T11:36:12.504Z,23.99
2023-05-24T11:37:38.562Z,24.0
2023-05-24T11:38:38.179Z,23.99
2023-05-24T11:39:40.528Z,24.02
2023-05-24T11:40:53.495Z,23.99
2023-05-24T11:42:06.022Z,23.99
2023-05-24T11:43:08.881Z,23.99
2023-05-24T11:44:20.916Z,24.0
2023-05-24T11:45:33.961Z,24.02
2023-05-24T11:46:46.139Z,24.0
2023-05-24T11:47:49.445Z,24.0
2023-05-24T11:49:01.706Z,24.0
2023-05-24T11:50:14.405Z,24.0
2023-05-24T11:51:16.652Z,23.99
2023-05-24T11:52:29.408Z,23.96
2023-05-24T11:53:41.599Z,23.98
2023-05-24T11:54:54.444Z,23.95
2023-05-24T11:55:56.693Z,23.96
2023-05-24T11:57:09.421Z,23.95
2023-05-24T11:58:21.669Z,23.95
2023-05-24T11:59:34.672Z,23.96
2023-05-24T12:00:36.938Z,23.93
2023-05-24T12:01:49.442Z,23.93
2023-05-24T12:03:01.473Z,23.92
2023-05-24T12:04:05.003Z,23.95
2023-05-24T12:05:17.290Z,23.93
2023-05-24T12:06:30.402Z,23.98
2023-05-24T12:07:32.735Z,23.95
2023-05-24T12:08:45.894Z,23.93
2023-05-24T12:09:58.017Z,23.96
2023-05-24T12:11:11.433Z,23.96
2023-05-24T12:12:13.714Z,23.93
2023-05-24T12:13:26.929Z,23.95
2023-05-24T12:14:39.126Z,23.93
2023-05-24T12:15:42.456Z,23.95
2023-05-24T12:16:54.644Z,23.95
2023-05-24T12:18:07.496Z,23.95
2023-05-24T12:19:31.646Z,23.95
2023-05-24T12:20:25.913Z,23.96
2023-05-24T12:21:37.951Z,23.93
2023-05-24T12:22:50.904Z,23.98
2023-05-24T12:23:53.135Z,23.99
2023-05-24T12:25:05.905Z,23.99
2023-05-24T12:26:18.008Z,23.99
2023-05-24T12:27:20.891Z,23.98
2023-05-24T12:28:32.990Z,23.96
2023-05-24T12:29:46.035Z,23.99
2023-05-24T12:30:58.108Z,23.98
2023-05-24T12:32:01.416Z,23.98
2023-05-24T12:33:13.547Z,23.98
2023-05-24T12:34:26.501Z,23.96
2023-05-24T12:35:28.746Z,23.96
2023-05-24T12:36:41.512Z,23.99
2023-05-24T12:37:53.607Z,23.99
2023-05-24T12:39:06.419Z,23.98
2023-05-24T12:40:08.484Z,23.99
2023-05-24T12:41:20.914Z,23.98
2023-05-24T12:42:42.497Z,24.0
2023-05-24T12:43:45.429Z,23.99
2023-05-24T12:44:47.656Z,24.0
2023-05-24T12:46:00.467Z,24.02
2023-05-24T12:47:12.577Z,24.0
2023-05-24T12:48:25.442Z,24.0
2023-05-24T12:49:27.636Z,24.02
2023-05-24T12:50:40.538Z,24.02
2023-05-24T12:51:53.011Z,24.03
2023-05-24T12:53:05.926Z,24.05
2023-05-24T12:54:08.171Z,24.05
2023-05-24T12:55:20.912Z,24.07
2023-05-24T12:56:33.104Z,24.09
2023-05-24T12:57:35.919Z,24.1
2023-05-24T12:58:47.994Z,24.09
2023-05-24T13:00:01.406Z,24.13
2023-05-24T13:01:23.196Z,24.11
2023-05-24T13:02:16.426Z,24.13
2023-05-24T13:03:28.511Z,24.14
2023-05-24T13:04:41.407Z,24.16
2023-05-24T13:05:53.575Z,24.19
2023-05-24T13:06:56.920Z,24.19
2023-05-24T13:08:09.002Z,24.22
2023-05-24T13:09:41.439Z,24.22
2023-05-24T13:10:23.972Z,24.22
2023-05-24T13:11:36.054Z,24.23
2023-05-24T13:12:48.947Z,24.23
2023-05-24T13:14:01.004Z,24.26
2023-05-24T13:15:03.907Z,24.26
2023-05-24T13:16:25.837Z,24.27
2023-05-24T13:17:28.970Z,24.26
2023-05-24T13:18:50.894Z,24.26
2023-05-24T13:19:43.936Z,24.26
2023-05-24T13:20:56.005Z,24.26
2023-05-24T13:22:08.920Z,24.27
2023-05-24T13:23:11.094Z,24.26
2023-05-24T13:24:23.932Z,24.26
2023-05-24T13:25:36.046Z,24.27
2023-05-24T13:26:50.095Z,24.27
2023-05-24T13:27:53.995Z,24.26
2023-05-24T13:29:26.669Z,24.29
2023-05-24T13:30:15.484Z,24.32
2023-05-24T13:31:27.612Z,24.3
2023-05-24T13:32:30.456Z,24.32
2023-05-24T13:33:42.562Z,24.34
2023-05-24T13:34:55.484Z,24.36
2023-05-24T13:36:07.668Z,24.36
2023-05-24T13:37:10.434Z,24.37
2023-05-24T13:38:22.820Z,24.36
2023-05-24T13:39:35.930Z,24.36
2023-05-24T13:40:48.040Z,24.36
2023-05-24T13:41:50.999Z,24.4
2023-05-24T13:43:13.105Z,24.4
2023-05-24T13:44:35.426Z,24.4
2023-05-24T13:45:17.890Z,24.4
2023-05-24T13:46:29.995Z,24.44
2023-05-24T13:48:02.485Z,24.43
2023-05-24T13:48:54.843Z,24.44
2023-05-24T13:49:56.953Z,24.46
2023-05-24T13:51:09.967Z,24.46
2023-05-24T13:52:22.110Z,24.46
2023-05-24T13:53:35.002Z,24.46
2023-05-24T13:54:38.072Z,24.47
2023-05-24T13:55:50.945Z,24.46
2023-05-24T13:57:02.942Z,24.46
2023-05-24T13:58:15.977Z,24.46
2023-05-24T13:59:27.787Z,24.46
2023-05-24T14:00:30.923Z,24.47
2023-05-24T14:01:42.997Z,24.47
2023-05-24T14:02:46.484Z,24.49
2023-05-24T14:03:58.632Z,24.49
2023-05-24T14:05:25.884Z,24.51
2023-05-24T14:06:20.066Z,24.5
2023-05-24T14:07:32.988Z,24.49
2023-05-24T14:08:35.172Z,24.51
2023-05-24T14:09:47.928Z,24.5
2023-05-24T14:10:59.958Z,24.5
2023-05-24T14:12:12.936Z,24.51
2023-05-24T14:15:40.708Z,24.5
2023-05-24T14:16:53.600Z,24.53
2023-05-24T14:17:56.035Z,24.51
2023-05-24T14:19:08.943Z,24.5
2023-05-24T14:20:21.009Z,24.53
2023-05-24T14:21:23.973Z,24.54
2023-05-24T14:22:36.651Z,24.54
2023-05-24T14:23:49.433Z,24.5
2023-05-24T14:24:51.682Z,24.5
2023-05-24T14:26:04.593Z,24.49
2023-05-24T14:27:16.614Z,24.49
2023-05-24T14:28:29.447Z,24.47
2023-05-24T14:29:31.669Z,24.47
2023-05-24T14:30:44.462Z,24.47
2023-05-24T14:31:56.613Z,24.47
2023-05-24T14:33:09.987Z,24.5
2023-05-24T14:34:12.307Z,24.49
2023-05-24T14:35:24.928Z,24.47
2023-05-24T14:36:37.010Z,24.5
2023-05-24T14:37:39.982Z,24.49
2023-05-24T14:38:52.082Z,24.49
2023-05-24T14:40:05.024Z,24.5
2023-05-24T14:41:17.168Z,24.5
2023-05-24T14:42:20.451Z,24.51
2023-05-24T14:43:32.656Z,24.53
2023-05-24T14:44:45.661Z,24.51
2023-05-24T14:45:48.080Z,24.53
2023-05-24T14:47:00.987Z,24.54
2023-05-24T14:48:13.322Z,24.53
2023-05-24T14:49:26.471Z,24.56
2023-05-24T14:50:28.636Z,24.54
2023-05-24T14:51:41.469Z,24.56
2023-05-24T14:52:55.343Z,24.56
2023-05-24T14:53:58.941Z,24.56
2023-05-24T14:55:11.538Z,24.6
2023-05-24T14:56:25.241Z,24.58
2023-05-24T14:57:27.826Z,24.58
2023-05-24T14:58:40.456Z,24.54
2023-05-24T14:59:52.575Z,24.58
2023-05-24T15:00:55.496Z,24.58
2023-05-24T15:02:07.502Z,24.58
2023-05-24T15:03:20.641Z,24.61
2023-05-24T15:04:32.759Z,24.58
2023-05-24T15:05:35.471Z,24.61
2023-05-24T15:06:47.452Z,24.63